createdAt,value
2023-05-14T00:02:55.793Z,10.40
2023-05-14T00:06:57.753Z,10.57
2023-05-14T00:10:59.590Z,10.88
2023-05-14T00:15:01.751Z,9.75
2023-05-14T00:19:03.996Z,10.23
2023-05-14T00:23:06.004Z,10.55
2023-05-14T00:27:07.946Z,10.98
2023-05-14T00:31:09.780Z,10.90
2023-05-14T00:35:11.651Z,10.27
2023-05-14T00:39:14.527Z,10.00
2023-05-14T00:43:16.378Z,9.38
2023-05-14T00:47:18.430Z,10.63
2023-05-14T00:51:20.425Z,10.63
2023-05-14T00:55:22.987Z,10.60
2023-05-14T00:59:24.784Z,10.00
2023-05-14T01:03:27.031Z,10.18
2023-05-14T01:07:44.859Z,10.23
2023-05-14T01:11:49.745Z,10.48
2023-05-14T01:15:54.903Z,10.25
2023-05-14T01:19:57.974Z,10.45
2023-05-14T01:24:00.267Z,10.13
2023-05-14T01:28:13.956Z,10.60
2023-05-14T01:32:17.819Z,9.98
2023-05-14T01:36:19.754Z,9.95
2023-05-14T01:40:24.050Z,9.98
2023-05-14T01:44:26.417Z,9.68
2023-05-14T01:48:30.201Z,10.73
2023-05-14T01:52:32.040Z,9.73
2023-05-14T01:56:33.893Z,10.27
2023-05-14T02:00:35.815Z,10.52
2023-05-14T02:04:37.702Z,11.35
2023-05-14T02:08:39.585Z,10.50
2023-05-14T02:12:41.480Z,10.57
2023-05-14T02:16:43.359Z,10.75
2023-05-14T02:20:45.329Z,10.52
2023-05-14T02:24:47.267Z,10.07
2023-05-14T02:28:49.168Z,10.35
2023-05-14T02:32:51.316Z,10.02
2023-05-14T02:36:53.321Z,9.43
2023-05-14T02:40:55.111Z,10.88
2023-05-14T02:44:56.958Z,10.98
2023-05-14T02:48:59.119Z,9.63
2023-05-14T02:53:01.923Z,9.55
2023-05-14T02:57:03.862Z,9.20
2023-05-14T03:01:05.868Z,8.95
2023-05-14T03:05:09.679Z,8.98
2023-05-14T03:09:11.574Z,8.88
2023-05-14T03:13:14.681Z,8.95
2023-05-14T03:17:16.499Z,9.02
2023-05-14T03:21:18.489Z,9.15
2023-05-14T03:25:20.396Z,9.02
2023-05-14T03:29:22.193Z,8.27
2023-05-14T03:33:24.084Z,8.40
2023-05-14T03:37:26.119Z,8.00
2023-05-14T03:41:27.904Z,9.20
2023-05-14T03:45:30.568Z,10.98
2023-05-14T03:49:34.048Z,8.57
2023-05-14T03:53:36.356Z,9.10
2023-05-14T03:57:38.352Z,9.00
2023-05-14T04:01:40.127Z,9.73
2023-05-14T04:05:41.921Z,9.23
2023-05-14T04:09:44.075Z,9.52
2023-05-14T04:13:46.998Z,10.45
2023-05-14T04:17:48.841Z,10.35
2023-05-14T04:21:50.853Z,9.98
2023-05-14T04:25:52.649Z,11.10
2023-05-14T04:29:54.763Z,10.27
2023-05-14T04:33:56.546Z,11.75
2023-05-14T04:37:58.464Z,11.18
2023-05-14T04:42:00.270Z,11.02
2023-05-14T04:46:02.445Z,11.02
2023-05-14T04:50:04.914Z,11.60
2023-05-14T04:54:06.904Z,11.98
2023-05-14T04:58:08.781Z,11.48
2023-05-14T05:02:10.617Z,12.02
2023-05-14T05:06:12.520Z,11.52
2023-05-14T05:10:14.397Z,11.55
2023-05-14T05:14:16.160Z,12.38
2023-05-14T05:18:18.010Z,12.32
2023-05-14T05:22:20.393Z,13.23
2023-05-14T05:26:25.043Z,12.70
2023-05-14T05:30:27.017Z,14.32
2023-05-14T05:34:28.871Z,12.73
2023-05-14T05:38:30.734Z,14.65
2023-05-14T05:42:32.627Z,14.48
2023-05-14T05:46:34.507Z,14.55
2023-05-14T05:50:36.289Z,15.43
2023-05-14T05:54:40.025Z,14.10
2023-05-14T05:58:41.917Z,15.60
2023-05-14T06:02:44.289Z,15.07
2023-05-14T06:06:46.264Z,15.02
2023-05-14T06:10:48.144Z,16.15
2023-05-14T06:14:49.984Z,14.75
2023-05-14T06:18:52.986Z,15.75
2023-05-14T06:22:54.846Z,16.85
2023-05-14T06:26:56.658Z,16.60
2023-05-14T06:30:58.536Z,16.60
2023-05-14T06:35:00.383Z,17.13
2023-05-14T06:39:02.292Z,16.13
2023-05-14T06:43:06.500Z,14.85
2023-05-14T06:47:08.745Z,14.55
2023-05-14T06:51:11.125Z,15.23
2023-05-14T06:55:12.904Z,14.13
2023-05-14T06:59:14.725Z,13.70
2023-05-14T07:03:16.574Z,12.35
2023-05-14T07:07:20.821Z,11.55
2023-05-14T07:11:23.250Z,12.05
2023-05-14T07:15:25.059Z,13.18
2023-05-14T07:19:28.861Z,12.70
2023-05-14T07:23:30.854Z,11.05
2023-05-14T07:27:34.924Z,10.52
2023-05-14T07:31:36.785Z,10.80
2023-05-14T07:35:38.757Z,11.60
2023-05-14T07:39:41.853Z,9.48
2023-05-14T07:43:43.805Z,9.70
2023-05-14T07:47:45.740Z,9.63
2023-05-14T07:51:47.582Z,9.90
2023-05-14T07:55:49.524Z,10.32
2023-05-14T07:59:51.482Z,9.25
2023-05-14T08:03:53.347Z,10.73
2023-05-14T08:07:55.267Z,10.48
2023-05-14T08:11:57.103Z,9.60
2023-05-14T08:15:59.146Z,9.25
2023-05-14T08:20:00.929Z,9.60
2023-05-14T08:24:02.820Z,10.00
2023-05-14T08:28:05.112Z,8.25
2023-05-14T08:32:19.277Z,9.18
2023-05-14T08:36:24.301Z,8.25
2023-05-14T08:40:27.199Z,8.80
2023-05-14T08:44:53.710Z,7.80
2023-05-14T08:49:00.757Z,6.82
2023-05-14T08:53:02.755Z,8.27
2023-05-14T08:57:05.212Z,8.07
2023-05-14T09:01:07.073Z,7.40
2023-05-14T09:05:09.583Z,6.88
2023-05-14T09:09:11.897Z,6.72
2023-05-14T09:13:13.709Z,6.72
2023-05-14T09:17:16.848Z,7.60
2023-05-14T09:21:18.968Z,7.38
2023-05-14T09:25:20.909Z,6.82
2023-05-14T09:29:30.006Z,7.30
2023-05-14T09:33:31.927Z,7.45
2023-05-14T09:37:36.697Z,7.53
2023-05-14T09:41:38.542Z,7.47
2023-05-14T09:45:41.087Z,8.25
2023-05-14T09:49:42.876Z,7.85
2023-05-14T09:53:44.788Z,6.88
2023-05-14T09:57:46.684Z,6.72
2023-05-14T10:01:50.145Z,6.95
2023-05-14T10:05:52.692Z,5.80
2023-05-14T10:10:01.967Z,5.50
2023-05-14T10:14:09.418Z,11.82
2023-05-14T10:18:14.603Z,15.25
2023-05-14T10:22:19.013Z,17.42
2023-05-14T10:26:23.225Z,8.02
2023-05-14T10:30:26.212Z,6.57
2023-05-14T10:34:45.389Z,7.50
2023-05-14T10:38:47.453Z,20.20
2023-05-14T10:42:49.986Z,12.13
2023-05-14T10:46:52.527Z,8.80
2023-05-14T10:50:56.438Z,6.88
2023-05-14T10:55:03.127Z,6.15
2023-05-14T10:59:06.951Z,8.40
2023-05-14T11:03:08.961Z,7.38
2023-05-14T11:07:10.890Z,10.25
2023-05-14T11:11:12.920Z,8.38
2023-05-14T11:15:18.401Z,8.45
2023-05-14T11:19:21.904Z,7.85
2023-05-14T11:23:25.825Z,6.90
2023-05-14T11:27:27.807Z,6.68
2023-05-14T11:31:29.713Z,5.60
2023-05-14T11:35:32.658Z,5.45
2023-05-14T11:39:37.652Z,6.15
2023-05-14T11:43:39.496Z,5.72
2023-05-14T11:47:42.934Z,5.57
2023-05-14T11:51:44.935Z,6.28
2023-05-14T11:55:47.873Z,9.82
2023-05-14T11:59:59.080Z,6.78
2023-05-14T12:04:00.990Z,7.32
2023-05-14T12:08:02.843Z,7.10
2023-05-14T12:12:10.274Z,7.07
2023-05-14T12:16:12.226Z,6.68
2023-05-14T12:20:14.178Z,5.65
2023-05-14T12:24:18.716Z,5.20
2023-05-14T12:28:20.840Z,6.55
2023-05-14T12:32:25.608Z,10.73
2023-05-14T12:36:27.460Z,10.68
2023-05-14T12:40:29.816Z,8.52
2023-05-14T12:44:31.725Z,6.05
2023-05-14T12:48:33.600Z,6.20
2023-05-14T12:52:39.395Z,6.18
2023-05-14T12:56:41.966Z,5.63
2023-05-14T13:00:43.856Z,14.20
2023-05-14T13:04:45.938Z,9.65
2023-05-14T13:08:47.818Z,6.22
2023-05-14T13:12:50.772Z,5.57
2023-05-14T13:16:52.655Z,4.72
2023-05-14T13:20:54.493Z,5.03
2023-05-14T13:24:56.324Z,5.90
2023-05-14T13:28:58.208Z,5.30
2023-05-14T13:33:00.295Z,5.05
2023-05-14T13:37:02.253Z,5.05
2023-05-14T13:41:04.289Z,5.88
2023-05-14T13:45:06.781Z,5.18
2023-05-14T13:49:08.587Z,5.45
2023-05-14T13:53:10.459Z,5.00
2023-05-14T13:57:12.288Z,4.80
2023-05-14T14:01:14.155Z,5.65
2023-05-14T14:05:16.251Z,5.70
2023-05-14T14:09:18.212Z,5.82
2023-05-14T14:13:21.452Z,6.10
2023-05-14T14:17:23.278Z,6.57
2023-05-14T14:21:25.104Z,5.90
2023-05-14T14:25:26.951Z,7.18
2023-05-14T14:29:31.324Z,6.32
2023-05-14T14:33:33.163Z,5.82
2023-05-14T14:37:34.972Z,6.40
2023-05-14T14:41:36.952Z,6.18
2023-05-14T14:45:38.815Z,6.63
2023-05-14T14:49:40.632Z,7.15
2023-05-14T14:53:42.558Z,7.00
2023-05-14T14:57:44.458Z,6.53
2023-05-14T15:01:46.407Z,7.13
2023-05-14T15:05:48.861Z,6.65
2023-05-14T15:09:50.863Z,7.13
2023-05-14T15:13:52.734Z,7.07
2023-05-14T15:17:54.688Z,6.88
2023-05-14T15:21:56.548Z,8.23
2023-05-14T15:25:58.356Z,8.05
2023-05-14T15:30:00.182Z,7.22
2023-05-14T15:34:02.040Z,7.03
2023-05-14T15:38:04.072Z,7.07
2023-05-14T15:42:07.662Z,5.97
2023-05-14T15:46:09.728Z,8.52
2023-05-14T15:50:11.949Z,7.95
2023-05-14T15:54:13.920Z,7.57
2023-05-14T15:58:15.886Z,7.63
2023-05-14T16:02:17.935Z,7.22
2023-05-14T16:06:19.807Z,7.43
2023-05-14T16:10:22.148Z,7.38
2023-05-14T16:14:24.172Z,7.68
2023-05-14T16:18:26.553Z,9.63
2023-05-14T16:22:29.608Z,7.53
2023-05-14T16:26:31.505Z,7.63
2023-05-14T16:30:33.412Z,9.32
2023-05-14T16:34:35.291Z,8.07
2023-05-14T16:38:44.613Z,8.10
2023-05-14T16:42:54.457Z,7.30
2023-05-14T16:46:56.493Z,7.05
2023-05-14T16:50:59.664Z,6.72
2023-05-14T16:55:01.500Z,6.82
2023-05-14T16:59:03.523Z,6.90
2023-05-14T17:03:06.768Z,5.85
2023-05-14T17:07:08.689Z,6.53
2023-05-14T17:11:10.580Z,7.10
2023-05-14T17:15:12.458Z,6.85
2023-05-14T17:19:14.342Z,7.22
2023-05-14T17:23:17.293Z,6.30
2023-05-14T17:27:19.105Z,7.78
2023-05-14T17:31:22.397Z,6.15
2023-05-14T17:35:24.497Z,6.00
2023-05-14T17:39:26.659Z,5.97
2023-05-14T17:43:28.519Z,5.10
2023-05-14T17:47:30.509Z,5.47
2023-05-14T17:51:32.377Z,5.32
2023-05-14T17:55:40.074Z,5.68
2023-05-14T17:59:41.903Z,5.03
2023-05-14T18:03:43.827Z,6.38
2023-05-14T18:07:45.896Z,5.85
2023-05-14T18:11:47.718Z,5.25
2023-05-14T18:15:51.713Z,6.10
2023-05-14T18:19:53.566Z,5.57
2023-05-14T18:23:55.437Z,5.28
2023-05-14T18:27:57.310Z,5.38
2023-05-14T18:31:59.098Z,5.18
2023-05-14T18:36:01.720Z,5.93
2023-05-14T18:40:04.907Z,5.63
2023-05-14T18:44:06.815Z,5.50
2023-05-14T18:48:10.235Z,5.78
2023-05-14T18:52:12.057Z,6.53
2023-05-14T18:56:13.964Z,5.70
2023-05-14T19:00:16.221Z,6.32
2023-05-14T19:04:18.095Z,4.90
2023-05-14T19:08:19.978Z,6.43
2023-05-14T19:12:21.818Z,6.05
2023-05-14T19:16:24.378Z,5.97
2023-05-14T19:20:26.382Z,5.20
2023-05-14T19:24:28.187Z,5.85
2023-05-14T19:28:30.138Z,6.57
2023-05-14T19:32:31.985Z,6.15
2023-05-14T19:36:33.946Z,6.57
2023-05-14T19:40:35.789Z,5.78
2023-05-14T19:44:37.699Z,6.25
2023-05-14T19:48:39.557Z,6.93
2023-05-14T19:52:41.467Z,6.25
2023-05-14T19:56:43.296Z,6.22
2023-05-14T20:00:47.495Z,6.10
2023-05-14T20:04:55.682Z,6.20
2023-05-14T20:08:57.516Z,7.32
2023-05-14T20:12:59.602Z,6.68
2023-05-14T20:17:01.988Z,6.18
2023-05-14T20:21:04.125Z,5.90
2023-05-14T20:25:07.206Z,6.53
2023-05-14T20:29:11.169Z,6.95
2023-05-14T20:33:13.932Z,8.32
2023-05-14T20:37:15.839Z,7.38
2023-05-14T20:41:17.617Z,8.30
2023-05-14T20:45:19.597Z,7.57
2023-05-14T20:49:21.405Z,7.75
2023-05-14T20:53:23.559Z,7.80
2023-05-14T20:57:25.882Z,9.07
2023-05-14T21:01:27.823Z,10.23
2023-05-14T21:05:29.738Z,10.32
2023-05-14T21:09:31.885Z,10.20
2023-05-14T21:13:33.890Z,10.23
2023-05-14T21:17:35.756Z,10.93
2023-05-14T21:21:37.774Z,12.15
2023-05-14T21:25:39.655Z,11.52
2023-05-14T21:29:41.588Z,12.48
2023-05-14T21:33:43.402Z,12.57
2023-05-14T21:37:45.299Z,12.18
2023-05-14T21:41:47.167Z,11.68
2023-05-14T21:45:49.222Z,11.60
2023-05-14T21:49:51.037Z,11.90
2023-05-14T21:53:52.843Z,12.23
2023-05-14T21:57:54.782Z,12.95
2023-05-14T22:02:06.791Z,13.68
2023-05-14T22:06:09.066Z,13.13
2023-05-14T22:10:14.533Z,13.82
2023-05-14T22:14:16.378Z,15.77
2023-05-14T22:18:18.452Z,14.50
2023-05-14T22:22:20.454Z,16.17
2023-05-14T22:26:22.310Z,16.58
2023-05-14T22:30:24.205Z,17.08
2023-05-14T22:34:26.079Z,17.00
2023-05-14T22:38:27.882Z,15.95
2023-05-14T22:42:29.789Z,14.65
2023-05-14T22:46:31.743Z,16.00
2023-05-14T22:50:33.826Z,16.65
2023-05-14T22:54:36.530Z,17.05
2023-05-14T22:58:38.355Z,16.00
2023-05-14T23:02:40.344Z,16.23
2023-05-14T23:06:42.249Z,16.45
2023-05-14T23:10:44.016Z,15.35
2023-05-14T23:14:46.165Z,15.80
2023-05-14T23:18:48.213Z,15.23
2023-05-14T23:22:50.102Z,15.10
2023-05-14T23:26:51.930Z,15.25
2023-05-14T23:30:53.785Z,15.10
2023-05-14T23:34:55.868Z,13.52
2023-05-14T23:38:58.910Z,14.55
2023-05-14T23:43:01.189Z,13.85
2023-05-14T23:47:03.202Z,12.70
2023-05-14T23:51:05.081Z,12.38
2023-05-14T23:55:07.180Z,11.65
2023-05-14T23:59:09.093Z,11.38
